Aérodrome :
LOGIN :

S'inscrire | Disclaimer

   EN    FR    IT 

 










Légende :    VFR   VFR Marginal   IFR   IFR Intensif   IFR Très Intensif
Visi : 
Plafond : 
>= 8 km
>= 3000ft
5 à 8 km
1000 à 3000 ft
1500m à 5 km
500 à 1000 ft
800 à 1500m
200 à 500 ft
< 800m
< 200 ft
Symboles :   Orages  Brouillard  Fortes neiges  Fortes précipitations  Vent > 20 kt
SIGMETs :   Divers  Orages  Givrage  Turbulence  Onde Orograph.  Cendres Volcan.






- Altitude de l'aérodrome : 512 ft
- Code IATA : URO


LFOP - Rouen Vallée de Seine

DERNIER METAR :
  • 010500Z AUTO 05008KT CAVOK M00/M03 Q1023

METARs EXPIRÉS :
  • 010430Z AUTO 05007KT CAVOK M00/M03 Q1023
  • 010400Z AUTO 05007KT CAVOK 00/M03 Q1023
  • 010330Z AUTO 04008KT CAVOK 00/M03 Q1023
  • 010300Z AUTO 05008KT CAVOK 00/M03 Q1023
  • 010230Z AUTO 04008KT CAVOK 01/M03 Q1023

TAF TAF LFOP
Valide du 01 à 06h jusqu'au 02 à 06h UTC


010500Z 0106/0206 04007KT CAVOK
PROB40 0200/0206 3000 BR
ATIS : +33 2 35 80 80 34
Météo : +33 2 32 86 52 80



MET'MAP, la Météo Aéronautique d'un coup d'oeil ! - Copyright ORBIFLY Décembre 2007 - Disclaimer

ORBIFLY MET'MAP TEAM :

Programmation & Développement : Alexandra Zaïnal
Sur une idée originale de : Baudouin d'Aumeries
Assistance à la programmation : Marc-Olivier Méhu
Soutien technique & logistique : Manuel Goepfert

Contact : metmap@orbifly.com




SOURCES & CREDITS :

   NOAA